Time;durP1;ratioP1;P1;durP2;ratioP2;P2;SDS_P1;SDS_P2;PMS_P1;PMS_P2;Temp;Humidity;BMP_temperature;BMP_pressure;BME280_temperature;BME280_humidity;BME280_pressure;Samples;Min_cycle;Max_cycle;Signal;HPM_P1;HPM_P2
2020/12/30 00:01:05;;;;;;;;;;;;;;;1.02;100.00;101558.98;1902310;75;20231;-41
2020/12/30 00:03:35;;;;;;;;;;;;;;;1.02;100.00;101552.11;1902434;75;20183;-39
2020/12/30 00:06:05;;;;;;;;;;;;;;;1.04;100.00;101549.18;1901997;75;20227;-40
2020/12/30 00:08:32;;;;;;;;;;;;;;;1.03;100.00;101552.58;1902350;75;20250;-40
2020/12/30 00:10:59;;;;;;;;;;;;;;;1.04;100.00;101554.75;1902348;75;20436;-40
2020/12/30 00:13:27;;;;;;;;;;;;;;;1.03;100.00;101565.48;1900599;75;20220;-41
2020/12/30 00:15:56;;;;;;;;;;;;;;;1.04;100.00;101555.64;1880635;75;20181;-39
2020/12/30 00:18:23;;;;;;;;;;;;;;;1.05;100.00;101556.07;1867474;77;20298;-40
2020/12/30 00:20:53;;;;;;;;;;;;;;;1.04;100.00;101555.64;1867230;77;20189;-39
2020/12/30 00:23:25;;;;;;;;;;;;;;;1.03;100.00;101557.75;1867477;77;20154;-40
2020/12/30 00:25:53;;;;;;;;;;;;;;;1.02;100.00;101552.52;1867138;77;20198;-40
2020/12/30 00:28:22;;;;;;;;;;;;;;;1.03;100.00;101552.99;1867265;77;20193;-39
2020/12/30 00:30:50;;;;;;;;;;;;;;;1.02;100.00;101552.11;1867428;77;20134;-39
2020/12/30 00:33:18;;;;;;;;;;;;;;;1.01;100.00;101554.22;1867283;77;20135;-40
2020/12/30 00:35:45;;;;;;;;;;;;;;;1.02;100.00;101553.40;1867347;77;20158;-40
2020/12/30 00:38:13;;;;;;;;;;;;;;;1.04;100.00;101563.38;1867330;77;20172;-40
2020/12/30 00:40:41;;;;;;;;;;;;;;;1.06;100.00;101564.29;1867399;75;20196;-39
2020/12/30 00:43:09;;;;;;;;;;;;;;;1.05;100.00;101562.53;1867453;77;20443;-40
2020/12/30 00:45:36;;;;;;;;;;;;;;;1.05;100.00;101561.23;1867254;77;20248;-40
2020/12/30 00:48:04;;;;;;;;;;;;;;;1.03;100.00;101559.03;1867936;75;20178;-40
2020/12/30 00:50:32;;;;;;;;;;;;;;;1.02;100.00;101556.39;1867574;77;20149;-40
2020/12/30 00:53:00;;;;;;;;;;;;;;;1.01;100.00;101556.80;1867296;77;20142;-41
2020/12/30 00:55:28;;;;;;;;;;;;;;;1.00;100.00;101560.20;1876633;76;20226;-41
2020/12/30 00:57:57;;;;;;;;;;;;;;;0.98;100.00;101552.84;1868738;76;20143;-41
2020/12/30 01:00:25;;;;;;;;;;;;;;;0.98;100.00;101555.42;1867326;77;20126;-41
2020/12/30 01:03:11;;;;;;;;;;;;;;;0.97;100.00;101549.78;1867483;77;20427;-40
2020/12/30 01:05:39;;;;;;;;;;;;;;;0.97;100.00;101547.20;1867241;77;20142;-39
2020/12/30 01:08:07;;;;;;;;;;;;;;;0.98;100.00;101551.95;1867285;77;20227;-39
2020/12/30 01:10:35;;;;;;;;;;;;;;;0.97;100.00;101546.32;1867163;77;20225;-39
2020/12/30 01:13:02;;;;;;;;;;;;;;;0.95;100.00;101545.37;1867479;77;20162;-40
2020/12/30 01:15:30;;;;;;;;;;;;;;;0.96;100.00;101548.44;1867378;75;20213;-40
2020/12/30 01:17:57;;;;;;;;;;;;;;;0.96;100.00;101547.14;1867292;77;20137;-41
2020/12/30 01:20:25;;;;;;;;;;;;;;;0.97;100.00;101539.87;1867589;77;20247;-39
2020/12/30 01:22:52;;;;;;;;;;;;;;;0.97;100.00;101536.88;1867382;76;20223;-39
2020/12/30 01:25:20;;;;;;;;;;;;;;;0.97;100.00;101539.45;1867412;76;20189;-40
2020/12/30 01:27:48;;;;;;;;;;;;;;;0.95;100.00;101529.48;1867501;76;20282;-40
2020/12/30 01:30:15;;;;;;;;;;;;;;;0.94;100.00;101522.55;1867215;77;20259;-39
2020/12/30 01:32:43;;;;;;;;;;;;;;;0.91;100.00;101506.98;1867559;77;20188;-41
2020/12/30 01:35:11;;;;;;;;;;;;;;;0.88;100.00;101485.32;1867454;77;20133;-39
2020/12/30 01:37:40;;;;;;;;;;;;;;;0.85;100.00;101462.00;1867264;76;20137;-40
2020/12/30 01:40:08;;;;;;;;;;;;;;;0.80;100.00;101445.92;1867113;76;20140;-39
2020/12/30 01:42:43;;;;;;;;;;;;;;;0.78;100.00;101436.39;1867334;77;20172;-43
2020/12/30 01:45:12;;;;;;;;;;;;;;;0.72;100.00;101413.80;1866886;76;20172;-39
2020/12/30 01:47:40;;;;;;;;;;;;;;;0.70;100.00;101400.00;1867371;77;20139;-39
2020/12/30 01:50:07;;;;;;;;;;;;;;;0.71;100.00;101407.33;1867189;76;20382;-38
2020/12/30 01:52:36;;;;;;;;;;;;;;;0.71;100.00;101418.94;1867456;77;20489;-39
2020/12/30 01:55:04;;;;;;;;;;;;;;;0.72;100.00;101432.31;1867592;77;20184;-40
2020/12/30 01:57:31;;;;;;;;;;;;;;;0.71;100.00;101444.75;1867422;77;20228;-39
2020/12/30 01:59:59;;;;;;;;;;;;;;;0.70;100.00;101448.14;1867588;77;20176;-40
2020/12/30 02:02:28;;;;;;;;;;;;;;;0.70;100.00;101453.30;1867404;76;20517;-39
2020/12/30 02:04:56;;;;;;;;;;;;;;;0.69;100.00;101458.88;1867321;76;20128;-39
2020/12/30 02:07:24;;;;;;;;;;;;;;;0.68;100.00;101448.09;1867305;76;20168;-38
2020/12/30 02:09:52;;;;;;;;;;;;;;;0.67;100.00;101441.57;1867293;77;20141;-39
2020/12/30 02:12:20;;;;;;;;;;;;;;;0.64;100.00;101432.04;1867361;76;20434;-39
2020/12/30 02:14:48;;;;;;;;;;;;;;;0.65;100.00;101436.38;1867466;77;20144;-40
2020/12/30 02:17:16;;;;;;;;;;;;;;;0.67;100.00;101445.03;1867440;77;20156;-40
2020/12/30 02:19:45;;;;;;;;;;;;;;;0.70;100.00;101465.80;1867492;77;20184;-40
2020/12/30 02:22:14;;;;;;;;;;;;;;;0.75;100.00;101478.44;1867202;76;20156;-39
2020/12/30 02:26:49;;;;;;;;;;;;;;;0.86;100.00;101503.73;1924594;74;20174;-38
2020/12/30 02:29:17;;;;;;;;;;;;;;;0.86;100.00;101517.52;1881774;75;20191;-39
2020/12/30 02:31:44;;;;;;;;;;;;;;;0.90;100.00;101506.50;1903501;75;20195;-40
2020/12/30 02:34:13;;;;;;;;;;;;;;;0.92;100.00;101504.83;1903416;75;20191;-39
2020/12/30 02:36:40;;;;;;;;;;;;;;;0.95;100.00;101505.36;1903116;75;20227;-39
2020/12/30 02:39:08;;;;;;;;;;;;;;;0.96;100.00;101532.53;1903151;75;20370;-39
2020/12/30 02:41:36;;;;;;;;;;;;;;;0.97;100.00;101542.45;1903457;75;20374;-40
2020/12/30 02:44:04;;;;;;;;;;;;;;;0.96;100.00;101553.19;1900690;75;20140;-40
2020/12/30 02:46:32;;;;;;;;;;;;;;;0.96;100.00;101555.77;1869398;75;20234;-40
2020/12/30 02:49:00;;;;;;;;;;;;;;;0.97;100.00;101542.45;1903073;75;20176;-40
2020/12/30 02:51:27;;;;;;;;;;;;;;;0.95;100.00;101524.73;1903304;75;20465;-39
2020/12/30 02:53:55;;;;;;;;;;;;;;;0.94;100.00;101539.75;1902992;75;20144;-41
2020/12/30 02:56:23;;;;;;;;;;;;;;;0.94;100.00;101538.05;1890866;75;20550;-41
2020/12/30 02:58:51;;;;;;;;;;;;;;;0.93;100.00;101537.57;1872134;75;20378;-38
2020/12/30 03:01:18;;;;;;;;;;;;;;;0.96;100.00;101540.69;1868330;77;20203;-39
2020/12/30 03:03:46;;;;;;;;;;;;;;;0.97;100.00;101534.70;1868287;76;20137;-39
2020/12/30 03:06:14;;;;;;;;;;;;;;;0.97;100.00;101529.13;1867866;76;20183;-39
2020/12/30 03:08:41;;;;;;;;;;;;;;;0.99;100.00;101514.96;1868097;76;20228;-40
2020/12/30 03:11:09;;;;;;;;;;;;;;;0.97;100.00;101515.34;1868029;77;20124;-39
2020/12/30 03:13:38;;;;;;;;;;;;;;;0.95;100.00;101520.44;1868371;77;20129;-39
2020/12/30 03:16:05;;;;;;;;;;;;;;;0.94;100.00;101509.64;1847225;77;20136;-40
2020/12/30 03:18:33;;;;;;;;;;;;;;;0.93;100.00;101509.59;1868039;76;20136;-39
2020/12/30 03:21:00;;;;;;;;;;;;;;;0.94;100.00;101519.09;1867798;76;20138;-39
2020/12/30 03:23:28;;;;;;;;;;;;;;;0.93;100.00;101517.33;1868099;77;20169;-39
2020/12/30 03:25:55;;;;;;;;;;;;;;;0.95;100.00;101523.44;1867875;76;20233;-39
2020/12/30 03:28:23;;;;;;;;;;;;;;;0.93;100.00;101525.08;1868185;77;20181;-39
2020/12/30 03:30:50;;;;;;;;;;;;;;;0.92;100.00;101528.06;1868131;77;20134;-39
2020/12/30 03:33:18;;;;;;;;;;;;;;;0.93;100.00;101534.98;1867912;77;20185;-39
2020/12/30 03:35:46;;;;;;;;;;;;;;;0.90;100.00;101532.32;1868027;77;20146;-40
2020/12/30 03:38:13;;;;;;;;;;;;;;;0.89;100.00;101529.27;1867366;77;20460;-40
2020/12/30 03:40:41;;;;;;;;;;;;;;;0.88;100.00;101517.59;1867383;77;20190;-40
2020/12/30 03:43:09;;;;;;;;;;;;;;;0.86;100.00;101520.11;1867284;77;20209;-41
2020/12/30 03:45:37;;;;;;;;;;;;;;;0.85;100.00;101526.13;1867422;76;20123;-39
2020/12/30 03:48:05;;;;;;;;;;;;;;;0.83;100.00;101532.92;1867605;77;20122;-40
2020/12/30 03:50:32;;;;;;;;;;;;;;;0.82;100.00;101553.50;1867308;76;20138;-40
2020/12/30 03:53:00;;;;;;;;;;;;;;;0.80;100.00;101574.09;1867268;77;20138;-40
2020/12/30 03:55:27;;;;;;;;;;;;;;;0.78;100.00;101560.27;1867163;76;20154;-40
2020/12/30 03:57:55;;;;;;;;;;;;;;;0.75;100.00;101554.58;1867377;77;20131;-40
2020/12/30 04:00:24;;;;;;;;;;;;;;;0.74;100.00;101538.62;1867382;77;20444;-41
2020/12/30 04:02:51;;;;;;;;;;;;;;;0.72;100.00;101535.09;1867247;77;20193;-39
2020/12/30 04:05:19;;;;;;;;;;;;;;;0.72;100.00;101552.31;1867209;76;20143;-40
2020/12/30 04:07:47;;;;;;;;;;;;;;;0.70;100.00;101525.16;1833305;77;20158;-40
2020/12/30 04:10:15;;;;;;;;;;;;;;;0.69;100.00;101519.52;1867436;77;20197;-38
2020/12/30 04:12:42;;;;;;;;;;;;;;;0.67;100.00;101526.31;1867278;77;20153;-42
2020/12/30 04:15:10;;;;;;;;;;;;;;;0.66;100.00;101524.55;1867024;76;20289;-39
2020/12/30 04:17:37;;;;;;;;;;;;;;;0.66;100.00;101531.41;1867133;77;20225;-40
2020/12/30 04:20:05;;;;;;;;;;;;;;;0.66;100.00;101535.28;1867525;77;20134;-42
2020/12/30 04:22:33;;;;;;;;;;;;;;;0.66;100.00;101536.57;1867183;77;20179;-40
2020/12/30 04:25:00;;;;;;;;;;;;;;;0.66;100.00;101533.99;1867253;76;20202;-39
2020/12/30 04:27:28;;;;;;;;;;;;;;;0.65;100.00;101529.27;1870555;75;20185;-40
2020/12/30 04:29:56;;;;;;;;;;;;;;;0.64;100.00;101533.96;1867186;77;20142;-40
2020/12/30 04:32:24;;;;;;;;;;;;;;;0.64;100.00;101547.27;1867316;77;20273;-40
2020/12/30 04:34:52;;;;;;;;;;;;;;;0.64;100.00;101544.69;1868316;75;20141;-39
2020/12/30 04:37:19;;;;;;;;;;;;;;;0.65;100.00;101552.50;1867461;77;20181;-40
2020/12/30 04:39:47;;;;;;;;;;;;;;;0.64;100.00;101561.46;1867486;77;20130;-40
2020/12/30 04:42:18;;;;;;;;;;;;;;;0.62;100.00;101561.40;1867432;77;20189;-40
2020/12/30 04:44:49;;;;;;;;;;;;;;;0.61;100.00;101562.21;1865882;77;20125;-40
2020/12/30 04:47:17;;;;;;;;;;;;;;;0.60;100.00;101546.67;1883799;75;20231;-39
2020/12/30 04:49:44;;;;;;;;;;;;;;;0.58;100.00;101547.93;1902472;75;20263;-39
2020/12/30 04:52:12;;;;;;;;;;;;;;;0.59;100.00;101557.84;1902351;75;20255;-40
2020/12/30 04:54:41;;;;;;;;;;;;;;;0.58;100.00;101558.66;1900882;75;20286;-40
2020/12/30 04:57:08;;;;;;;;;;;;;;;0.59;100.00;101553.53;1900801;75;20175;-39
2020/12/30 04:59:42;;;;;;;;;;;;;;;0.61;100.00;101558.34;1866291;75;20139;-39
2020/12/30 05:02:10;;;;;;;;;;;;;;;0.62;100.00;101573.41;1882717;75;20212;-40
2020/12/30 05:04:40;;;;;;;;;;;;;;;0.63;100.00;101572.19;1867737;75;20121;-40
2020/12/30 05:07:10;;;;;;;;;;;;;;;0.63;100.00;101568.32;1867624;75;20198;-40
2020/12/30 05:09:42;;;;;;;;;;;;;;;0.62;100.00;101560.11;1867298;76;20120;-38
2020/12/30 05:12:16;;;;;;;;;;;;;;;0.61;100.00;101569.95;1867285;76;20452;-41
2020/12/30 05:14:44;;;;;;;;;;;;;;;0.60;100.00;101570.77;1873545;75;20215;-42
2020/12/30 05:17:13;;;;;;;;;;;;;;;0.59;100.00;101563.84;1868935;75;20170;-40
2020/12/30 05:19:43;;;;;;;;;;;;;;;0.61;100.00;101565.20;1872049;75;20231;-40
2020/12/30 05:22:15;;;;;;;;;;;;;;;0.60;100.00;101559.56;1866338;76;20287;-40
2020/12/30 05:24:44;;;;;;;;;;;;;;;0.58;100.00;101555.67;1866538;77;20196;-40
2020/12/30 05:27:15;;;;;;;;;;;;;;;0.58;100.00;101554.78;1867093;76;20278;-39
2020/12/30 05:29:46;;;;;;;;;;;;;;;0.57;100.00;101565.52;1873125;75;20175;-39
2020/12/30 05:32:16;;;;;;;;;;;;;;;0.58;100.00;101580.59;1870665;75;20221;-40
2020/12/30 05:34:44;;;;;;;;;;;;;;;0.59;100.00;101587.52;1820284;78;20181;-39
2020/12/30 05:37:12;;;;;;;;;;;;;;;0.60;100.00;101576.34;1805652;78;20161;-41
2020/12/30 05:39:39;;;;;;;;;;;;;;;0.62;100.00;101575.59;1840438;77;20162;-40
2020/12/30 05:42:17;;;;;;;;;;;;;;;0.64;100.00;101587.27;1807261;77;20127;-40
2020/12/30 05:44:47;;;;;;;;;;;;;;;0.64;100.00;101589.44;1792993;79;20189;-41
2020/12/30 05:47:19;;;;;;;;;;;;;;;0.63;100.00;101578.64;1795729;79;20220;-41
2020/12/30 05:49:49;;;;;;;;;;;;;;;0.63;100.00;101581.63;1813418;78;20321;-39
2020/12/30 05:52:22;;;;;;;;;;;;;;;0.63;100.00;101590.66;1811784;78;20200;-40
2020/12/30 05:54:55;;;;;;;;;;;;;;;0.61;100.00;101582.86;1849261;77;20378;-41
2020/12/30 05:57:31;;;;;;;;;;;;;;;0.61;100.00;101586.72;1830362;77;20170;-41
2020/12/30 06:00:01;;;;;;;;;;;;;;;0.61;100.00;101597.05;1837791;77;20188;-45
2020/12/30 06:02:32;;;;;;;;;;;;;;;0.60;100.00;101597.86;1829477;77;20137;-42
2020/12/30 06:05:12;;;;;;;;;;;;;;;0.61;100.00;101598.34;1799232;77;20227;-41
2020/12/30 06:07:41;;;;;;;;;;;;;;;0.62;100.00;101588.48;1838191;77;20161;-42
2020/12/30 06:10:12;;;;;;;;;;;;;;;0.63;100.00;101584.21;1832370;77;20264;-41
2020/12/30 06:12:50;;;;;;;;;;;;;;;0.64;100.00;101585.97;1804094;78;20226;-40
2020/12/30 06:15:22;;;;;;;;;;;;;;;0.66;100.00;101583.02;1813816;77;20181;-40
2020/12/30 06:17:55;;;;;;;;;;;;;;;0.68;100.00;101580.98;1815325;77;20276;-41
2020/12/30 06:20:30;;;;;;;;;;;;;;;0.69;100.00;101576.28;1828558;77;20582;-42
2020/12/30 06:22:58;;;;;;;;;;;;;;;0.72;100.00;101589.73;1809470;77;20169;-40
2020/12/30 06:26:55;;;;;;;;;;;;;;;0.82;100.00;101604.72;1893243;74;20522;-59
2020/12/30 06:29:25;;;;;;;;;;;;;;;0.78;100.00;101614.06;1860783;75;20222;-60
2020/12/30 06:31:53;;;;;;;;;;;;;;;0.79;100.00;101598.13;1873175;75;20180;-60
2020/12/30 06:34:22;;;;;;;;;;;;;;;0.79;100.00;101592.56;1870987;75;20510;-62
2020/12/30 06:36:52;;;;;;;;;;;;;;;0.80;100.00;101602.48;1876678;75;20175;-60
2020/12/30 06:39:21;;;;;;;;;;;;;;;0.80;100.00;101599.90;1836370;75;20254;-61
2020/12/30 06:41:54;;;;;;;;;;;;;;;0.83;100.00;101599.14;1870013;75;20172;-60
2020/12/30 06:44:43;;;;;;;;;;;;;;;0.85;100.00;101598.39;1866358;75;20188;-60
2020/12/30 06:47:12;;;;;;;;;;;;;;;0.87;100.00;101598.02;1867794;75;20255;-61
2020/12/30 06:49:42;;;;;;;;;;;;;;;0.89;100.00;101601.54;1849451;75;20177;-59
2020/12/30 06:52:29;;;;;;;;;;;;;;;0.89;100.00;101591.22;1869608;75;70450;-42
2020/12/30 06:55:00;;;;;;;;;;;;;;;0.92;100.00;101586.15;1818365;76;20189;-40
2020/12/30 06:57:44;;;;;;;;;;;;;;;0.94;100.00;101592.25;1841416;76;20476;-41
2020/12/30 07:00:34;;;;;;;;;;;;;;;0.97;100.00;101609.16;1840235;76;20179;-41
2020/12/30 07:03:15;;;;;;;;;;;;;;;0.99;100.00;101601.45;1870768;75;20596;-42
2020/12/30 07:05:44;;;;;;;;;;;;;;;1.01;100.00;101598.11;1873617;75;20292;-39
2020/12/30 07:08:12;;;;;;;;;;;;;;;1.04;100.00;101604.69;1871663;76;20134;-42
2020/12/30 07:10:42;;;;;;;;;;;;;;;1.06;100.00;101613.76;1868225;75;21094;-41
2020/12/30 07:13:12;;;;;;;;;;;;;;;1.08;100.00;101622.45;1859499;76;20164;-42
2020/12/30 07:15:40;;;;;;;;;;;;;;;1.12;100.00;101619.14;1870188;75;20185;-39
2020/12/30 07:18:08;;;;;;;;;;;;;;;1.14;100.00;101613.22;1837339;75;20343;-41
2020/12/30 07:20:40;;;;;;;;;;;;;;;1.17;100.00;101619.80;1852633;76;20467;-39
2020/12/30 07:23:11;;;;;;;;;;;;;;;1.22;100.00;101624.24;1862041;75;20261;-41
2020/12/30 07:25:38;;;;;;;;;;;;;;;1.26;100.00;101627.39;1862192;75;20213;-42
2020/12/30 07:28:06;;;;;;;;;;;;;;;1.30;100.00;101625.41;1871459;75;20136;-40
2020/12/30 07:30:34;;;;;;;;;;;;;;;1.35;100.00;101623.86;1868603;75;20169;-42
2020/12/30 07:33:02;;;;;;;;;;;;;;;1.39;100.00;101623.13;1869018;75;20702;-42
2020/12/30 07:35:30;;;;;;;;;;;;;;;1.43;100.00;101625.02;1870102;75;20146;-43
2020/12/30 07:38:01;;;;;;;;;;;;;;;1.46;100.00;101622.52;1866842;75;20489;-42
2020/12/30 07:40:29;;;;;;;;;;;;;;;1.49;100.00;101619.64;1856703;75;20207;-41
2020/12/30 07:42:59;;;;;;;;;;;;;;;1.50;100.00;101628.28;1837412;76;20199;-42
2020/12/30 07:45:27;;;;;;;;;;;;;;;1.50;100.00;101626.98;1870469;75;20222;-43
2020/12/30 07:47:55;;;;;;;;;;;;;;;1.51;100.00;101626.16;1864538;75;20130;-41
2020/12/30 07:50:23;;;;;;;;;;;;;;;1.54;100.00;101628.42;1867456;75;20279;-42
2020/12/30 07:52:53;;;;;;;;;;;;;;;1.58;100.00;101621.23;1872628;75;20189;-44
2020/12/30 07:55:26;;;;;;;;;;;;;;;1.62;100.00;101633.86;1856772;76;20177;-42
2020/12/30 07:57:56;;;;;;;;;;;;;;;1.66;100.00;101640.88;1853790;76;20204;-41
2020/12/30 08:00:28;;;;;;;;;;;;;;;1.67;100.00;101638.77;1867591;75;20201;-43
2020/12/30 08:02:56;;;;;;;;;;;;;;;1.69;100.00;101632.37;1861936;75;20153;-41
2020/12/30 08:05:24;;;;;;;;;;;;;;;1.71;100.00;101633.31;1862740;75;20584;-42
2020/12/30 08:07:51;;;;;;;;;;;;;;;1.73;100.00;101632.92;1864487;75;20189;-41
2020/12/30 08:10:23;;;;;;;;;;;;;;;1.75;100.00;101632.58;1866449;75;20136;-43
2020/12/30 08:12:52;;;;;;;;;;;;;;;1.75;100.00;101636.05;1872067;75;20430;-41
2020/12/30 08:15:20;;;;;;;;;;;;;;;1.78;100.00;101624.49;1863426;75;20607;-52
2020/12/30 08:17:48;;;;;;;;;;;;;;;1.78;100.00;101610.28;1856155;76;20278;-43
2020/12/30 08:20:16;;;;;;;;;;;;;;;1.78;100.00;101619.73;1857698;75;20295;-41
2020/12/30 08:22:44;;;;;;;;;;;;;;;1.79;100.00;101624.08;1873462;75;20211;-43
2020/12/30 08:25:13;;;;;;;;;;;;;;;1.80;100.00;101622.84;1867770;75;20549;-42
2020/12/30 08:27:41;;;;;;;;;;;;;;;1.82;100.00;101626.37;1868931;75;20478;-42
2020/12/30 08:30:10;;;;;;;;;;;;;;;1.85;100.00;101621.70;1838871;75;20204;-43
2020/12/30 08:33:01;;;;;;;;;;;;;;;1.87;100.00;101619.64;1866237;75;20494;-43
2020/12/30 08:35:31;;;;;;;;;;;;;;;1.91;100.00;101618.02;1868475;75;20191;-43
2020/12/30 08:38:12;;;;;;;;;;;;;;;1.92;100.00;101614.61;1835235;75;20227;-42
2020/12/30 08:40:41;;;;;;;;;;;;;;;1.92;99.89;101624.55;1863760;75;20174;-42
2020/12/30 08:43:24;;;;;;;;;;;;;;;1.93;99.81;101626.72;1867414;75;20272;-44
2020/12/30 08:46:02;;;;;;;;;;;;;;;1.97;99.71;101625.56;1861193;75;20187;-43
2020/12/30 08:48:31;;;;;;;;;;;;;;;1.98;99.54;101622.56;1868201;75;20271;-43
2020/12/30 08:50:59;;;;;;;;;;;;;;;2.00;99.44;101624.39;1867429;75;20574;-44
2020/12/30 08:53:36;;;;;;;;;;;;;;;2.06;99.34;101623.70;1864311;75;20176;-43
2020/12/30 08:56:05;;;;;;;;;;;;;;;2.11;99.19;101614.80;1862202;75;20272;-43
2020/12/30 08:58:33;;;;;;;;;;;;;;;2.14;99.00;101622.66;1854630;76;20485;-42
2020/12/30 09:01:02;;;;;;;;;;;;;;;2.16;98.84;101612.84;1866885;75;20206;-43
2020/12/30 09:03:30;;;;;;;;;;;;;;;2.19;98.69;101617.22;1864681;75;20283;-41
2020/12/30 09:05:59;;;;;;;;;;;;;;;2.25;98.59;101616.11;1861438;75;20203;-41
2020/12/30 09:08:32;;;;;;;;;;;;;;;2.28;98.33;101604.58;1868884;75;20232;-44
2020/12/30 09:11:00;;;;;;;;;;;;;;;2.30;98.14;101611.95;1870190;75;20202;-43
2020/12/30 09:13:29;;;;;;;;;;;;;;;2.31;97.98;101614.59;1867210;75;20448;-41
2020/12/30 09:16:04;;;;;;;;;;;;;;;2.36;97.85;101597.50;1837079;75;20332;-45
2020/12/30 09:18:33;;;;;;;;;;;;;;;2.41;97.58;101592.48;1863202;75;20237;-43
2020/12/30 09:21:01;;;;;;;;;;;;;;;2.47;97.39;101596.97;1865607;75;20984;-44
2020/12/30 09:23:31;;;;;;;;;;;;;;;2.51;97.29;101606.56;1868041;75;20241;-43
2020/12/30 09:26:01;;;;;;;;;;;;;;;2.58;97.20;101604.63;1867762;75;20178;-42
2020/12/30 09:28:29;;;;;;;;;;;;;;;2.65;97.09;101604.87;1870785;75;20303;-44
2020/12/30 09:30:59;;;;;;;;;;;;;;;2.72;96.82;101611.10;1864475;75;20812;-41
2020/12/30 09:33:27;;;;;;;;;;;;;;;2.73;96.53;101599.92;1840961;75;20186;-41
2020/12/30 09:35:58;;;;;;;;;;;;;;;2.73;96.09;101589.15;1850431;75;20274;-44
2020/12/30 09:38:26;;;;;;;;;;;;;;;2.72;95.75;101575.73;1834974;75;20283;-43
2020/12/30 09:40:56;;;;;;;;;;;;;;;2.68;95.63;101573.02;1859362;75;20349;-44
2020/12/30 09:43:26;;;;;;;;;;;;;;;2.65;95.62;101558.27;1867530;75;20166;-44
2020/12/30 09:46:04;;;;;;;;;;;;;;;2.61;95.58;101556.44;1865067;75;20775;-43
2020/12/30 09:48:32;;;;;;;;;;;;;;;2.60;95.59;101553.80;1861260;75;20327;-44
2020/12/30 09:51:00;;;;;;;;;;;;;;;2.57;95.59;101580.87;1871407;75;20204;-42
2020/12/30 09:53:28;;;;;;;;;;;;;;;2.55;95.57;101589.91;1868813;75;20205;-43
2020/12/30 09:55:56;;;;;;;;;;;;;;;2.54;95.67;101562.27;1817896;78;20195;-42
2020/12/30 09:58:24;;;;;;;;;;;;;;;2.54;95.91;101559.67;1801525;77;20149;-41
2020/12/30 10:00:53;;;;;;;;;;;;;;;2.53;96.09;101568.68;1810374;78;20210;-43
2020/12/30 10:03:21;;;;;;;;;;;;;;;2.52;96.25;101567.80;1831078;78;20232;-42
2020/12/30 10:05:49;;;;;;;;;;;;;;;2.52;96.37;101572.09;1829382;78;20237;-43
2020/12/30 10:08:17;;;;;;;;;;;;;;;2.52;96.49;101557.86;1829959;78;20287;-44
2020/12/30 10:10:47;;;;;;;;;;;;;;;2.56;96.77;101554.55;1830101;78;20184;-42
2020/12/30 10:13:15;;;;;;;;;;;;;;;2.58;97.03;101549.86;1826964;78;20188;-43
2020/12/30 10:15:43;;;;;;;;;;;;;;;2.63;97.21;101553.87;1832925;78;20176;-42
2020/12/30 10:18:11;;;;;;;;;;;;;;;2.66;97.20;101560.44;1831029;76;20202;-43
2020/12/30 10:20:40;;;;;;;;;;;;;;;2.69;97.14;101567.86;1797416;78;20215;-42
2020/12/30 10:26:50;;;;;;;;;;;;;;;2.78;97.02;101565.97;1891964;74;20189;-43
2020/12/30 10:29:18;;;;;;;;;;;;;;;2.76;97.00;101563.33;1863230;75;20230;-43
2020/12/30 10:31:51;;;;;;;;;;;;;;;2.78;97.00;101559.08;1867941;75;20200;-44
2020/12/30 10:34:19;;;;;;;;;;;;;;;2.82;96.96;101563.06;1871243;75;20178;-43
2020/12/30 10:36:48;;;;;;;;;;;;;;;2.84;96.90;101561.38;1867370;75;20178;-43
2020/12/30 10:39:16;;;;;;;;;;;;;;;2.84;96.76;101563.97;1873852;75;20195;-45
2020/12/30 10:41:45;;;;;;;;;;;;;;;2.81;96.69;101562.19;1874439;75;20210;-43
2020/12/30 10:44:15;;;;;;;;;;;;;;;2.77;96.61;101555.14;1869993;75;20279;-44
2020/12/30 10:46:46;;;;;;;;;;;;;;;2.75;96.61;101551.25;1872679;75;20791;-42
2020/12/30 10:49:13;;;;;;;;;;;;;;;2.73;96.66;101568.85;1875747;75;20205;-41
2020/12/30 10:51:46;;;;;;;;;;;;;;;2.73;96.72;101577.50;1871492;75;20200;-44
2020/12/30 10:54:16;;;;;;;;;;;;;;;2.73;96.77;101577.91;1870884;75;20289;-44
2020/12/30 10:56:47;;;;;;;;;;;;;;;2.75;96.80;101572.37;1867748;75;20233;-42
2020/12/30 10:59:15;;;;;;;;;;;;;;;2.74;96.81;101568.02;1869603;75;20191;-44
2020/12/30 11:01:44;;;;;;;;;;;;;;;2.72;96.80;101580.91;1865848;75;20194;-45
2020/12/30 11:04:15;;;;;;;;;;;;;;;2.72;96.78;101580.91;1869569;75;20312;-45
2020/12/30 11:06:47;;;;;;;;;;;;;;;2.72;96.74;101575.73;1845564;75;20691;-44
2020/12/30 11:09:16;;;;;;;;;;;;;;;2.71;96.75;101564.03;1822743;75;20223;-42
2020/12/30 11:11:53;;;;;;;;;;;;;;;2.69;96.75;101569.61;1797563;75;20204;-42
2020/12/30 11:14:27;;;;;;;;;;;;;;;2.66;96.79;101573.39;1811983;75;20130;-44
2020/12/30 11:16:55;;;;;;;;;;;;;;;2.66;96.82;101574.68;1872619;75;20377;-41
2020/12/30 11:19:22;;;;;;;;;;;;;;;2.65;96.80;101558.68;1869151;75;20274;-45
2020/12/30 11:21:53;;;;;;;;;;;;;;;2.65;96.80;101556.97;1873319;75;20280;-44
2020/12/30 11:24:21;;;;;;;;;;;;;;;2.62;96.84;101556.91;1873733;75;20504;-44
2020/12/30 11:26:51;;;;;;;;;;;;;;;2.61;96.86;101555.55;1871671;75;20293;-43
2020/12/30 11:29:20;;;;;;;;;;;;;;;2.60;96.89;101562.85;1859567;75;20173;-43
2020/12/30 11:31:48;;;;;;;;;;;;;;;2.60;96.97;101559.85;1869181;75;20217;-44
2020/12/30 11:34:16;;;;;;;;;;;;;;;2.61;96.97;101566.79;1867325;75;20184;-45
2020/12/30 11:36:45;;;;;;;;;;;;;;;2.61;97.01;101561.61;1870620;75;20209;-45
2020/12/30 11:39:13;;;;;;;;;;;;;;;2.61;96.97;101555.14;1871170;75;20529;-46
2020/12/30 11:41:43;;;;;;;;;;;;;;;2.61;96.97;101555.55;1845200;75;20201;-44
2020/12/30 11:44:18;;;;;;;;;;;;;;;2.62;96.97;101559.91;1869557;75;20180;-45
2020/12/30 11:46:52;;;;;;;;;;;;;;;2.62;96.93;101554.73;1867664;75;20322;-43
2020/12/30 11:49:20;;;;;;;;;;;;;;;2.62;96.91;101553.44;1835087;77;20177;-44
2020/12/30 11:51:49;;;;;;;;;;;;;;;2.63;96.90;101558.63;1833747;77;20188;-44
2020/12/30 11:54:16;;;;;;;;;;;;;;;2.65;96.88;101556.09;1841724;77;20182;-43
2020/12/30 11:56:44;;;;;;;;;;;;;;;2.66;96.81;101561.32;1809251;78;20240;-44
2020/12/30 11:59:12;;;;;;;;;;;;;;;2.70;96.72;101553.22;1806189;78;20195;-42
2020/12/30 12:01:40;;;;;;;;;;;;;;;2.71;96.64;101560.16;1811184;78;20164;-43
2020/12/30 12:04:10;;;;;;;;;;;;;;;2.70;96.59;101567.04;1797519;78;20186;-44
2020/12/30 12:06:38;;;;;;;;;;;;;;;2.69;96.50;101567.86;1812421;78;20223;-45
2020/12/30 12:09:06;;;;;;;;;;;;;;;2.68;96.44;101555.78;1831072;77;20220;-43
2020/12/30 12:11:35;;;;;;;;;;;;;;;2.68;96.39;101554.91;1795663;77;20196;-43
2020/12/30 12:14:06;;;;;;;;;;;;;;;2.66;96.37;101553.55;1807231;78;20893;-43
2020/12/30 12:16:59;;;;;;;;;;;;;;;2.65;96.37;101551.80;1795047;77;20188;-42
2020/12/30 12:19:27;;;;;;;;;;;;;;;2.61;96.40;101549.97;1810452;78;20207;-44
2020/12/30 12:21:57;;;;;;;;;;;;;;;2.57;96.41;101542.92;1829612;77;20185;-45
2020/12/30 12:24:24;;;;;;;;;;;;;;;2.54;96.44;101541.55;1832302;77;20263;-45
2020/12/30 12:26:52;;;;;;;;;;;;;;;2.50;96.52;101533.22;1830947;77;20209;-44
2020/12/30 12:29:36;;;;;;;;;;;;;;;2.47;96.66;101533.15;1835054;77;20201;-44
2020/12/30 12:32:13;;;;;;;;;;;;;;;2.44;96.79;101535.63;1831515;77;20207;-44
2020/12/30 12:34:46;;;;;;;;;;;;;;;2.39;96.94;101531.63;1789790;78;20200;-42
2020/12/30 12:37:15;;;;;;;;;;;;;;;2.37;97.07;101537.57;1807314;77;20152;-43
2020/12/30 12:39:50;;;;;;;;;;;;;;;2.34;97.20;101542.67;1772569;77;20188;-45
2020/12/30 12:42:21;;;;;;;;;;;;;;;2.34;97.34;101538.80;1770638;77;20200;-44
2020/12/30 12:44:52;;;;;;;;;;;;;;;2.32;97.46;101527.51;1780573;77;20432;-43
2020/12/30 12:47:20;;;;;;;;;;;;;;;2.29;97.54;101525.73;1832670;77;20196;-44
2020/12/30 12:49:47;;;;;;;;;;;;;;;2.25;97.67;101519.98;1831836;77;20277;-43
2020/12/30 12:52:18;;;;;;;;;;;;;;;2.22;97.76;101517.31;1795750;78;20234;-43
2020/12/30 12:54:48;;;;;;;;;;;;;;;2.19;97.82;101528.85;1832535;77;20486;-43
2020/12/30 12:57:21;;;;;;;;;;;;;;;2.18;97.86;101540.44;1817357;77;20239;-41
2020/12/30 12:59:49;;;;;;;;;;;;;;;2.15;97.86;101540.36;1800461;77;20331;-44